ADDS METAR Data INFO
IDs: Format: Raw Decoded Include TAF

Data at: 1133 UTC 29 May 2017

KF44 291115Z AUTO 00000KT 5SM BR OVC009 20/20 A2994 RMK AO2
KF44 291055Z AUTO 00000KT 5SM BR OVC009 20/20 A2994 RMK AO2
KF44 291035Z AUTO 00000KT 5SM BR OVC006 20/20 A2995 RMK AO2
KF44 291015Z AUTO 00000KT 7SM OVC006 20/20 A2995 RMK AO2
KF44 290955Z AUTO 19004KT 7SM SCT006 SCT100 20/20 A2994 RMK AO2
KF44 290935Z AUTO 01007KT 7SM BKN004 20/20 A2993 RMK AO2
KF44 290915Z AUTO 01007KT 7SM BKN004 20/20 A2992 RMK AO2
KF44 290900Z AUTO 36006KT 7SM BKN004 20/20 A2992 RMK AO2 LTG DSNT SE
KF44 290835Z AUTO 01004KT 7SM BKN004 20/20 A2992 RMK AO2
KF44 290815Z AUTO 36003KT 10SM BKN004 20/20 A2993 RMK AO2
KF44 290755Z AUTO 00000KT 10SM SCT004 SCT100 20/20 A2994 RMK AO2
KF44 290735Z AUTO 34003KT 10SM SCT100 20/20 A2995 RMK AO2
KF44 290715Z AUTO 35003KT 10SM SCT065 20/20 A2997 RMK AO2
KF44 290655Z AUTO 00000KT 10SM SCT050 BKN065 20/20 A2999 RMK AO2
KF44 290635Z AUTO 00000KT 5SM DZ SCT031 BKN038 OVC050 20/20 A3001 RMK AO2
KF44 290615Z AUTO 00000KT 7SM DZ SCT003 BKN034 OVC041 20/20 A3002 RMK AO2 LTG DSNT E
KF44 290555Z AUTO 00000KT 7SM -RA SCT021 SCT029 OVC034 20/20 A3002 RMK AO2 LTG DSNT E THRU S P0008
KF44 290535Z AUTO 00000KT 3SM VCTSRA SCT007 BKN011 OVC027 20/20 A3002 RMK AO2 LTG DSNT E THRU SW P0007
KF44 290515Z AUTO 00000KT 10SM +VCTSRA BKN009 OVC013 20/20 A3004 RMK AO2 LTG DSNT E THRU W
KF44 290455Z AUTO 00000KT 10SM -DZ OVC006 20/20 A3004 RMK AO2 LTG DSNT ALQS
KF44 290435Z AUTO 00000KT 10SM BKN004 BKN013 BKN060 20/20 A3001 RMK AO2 LTG DSNT E THRU SW
KF44 290415Z AUTO 15006KT 7SM -VCTSRA SCT004 SCT016 SCT060 20/20 A2996 RMK AO2 LTG DSNT E THRU SW
KF44 290355Z AUTO 00000KT 10SM -VCTSRA SCT047 SCT065 BKN100 20/20 A3000 RMK AO2 LTG DSNT ALQS
KF44 290335Z AUTO 19005KT 10SM -VCTSRA SCT047 SCT065 BKN080 20/20 A2999 RMK AO2 LTG DSNT E THRU W
KF44 290315Z AUTO 24003KT 10SM -VCTSRA SCT060 BKN080 BKN100 21/21 A2999 RMK AO2 LTG DSNT ALQS
KF44 290255Z AUTO 00000KT 10SM -TSRA SCT060 SCT080 BKN100 21/21 A2997 RMK AO2 LTG DSNT ALQS
KF44 290235Z AUTO 00000KT 10SM -TSRA SCT065 BKN085 BKN120 21/21 A2997 RMK AO2 LTG DSNT E THRU SW
KF44 290215Z AUTO 00000KT 10SM SCT039 SCT048 BKN120 21/21 A2996 RMK AO2 LTG DSNT E THRU SW
KF44 290155Z AUTO 03005KT 10SM BKN037 BKN047 21/20 A2993 RMK AO2 LTG DSNT SE THRU SW
KF44 290135Z AUTO 02004KT 10SM OVC037 21/20 A2992 RMK AO2 LTG DSNT E THRU SW
KF44 290115Z AUTO 03006KT 10SM SCT030 OVC035 21/20 A2991 RMK AO2 LTG DSNT SE THRU SW
KF44 290055Z AUTO 04005KT 10SM OVC030 21/21 A2988 RMK AO2 LTG DSNT E THRU S
KF44 290035Z AUTO 03006KT 10SM VCTS SCT012 OVC030 21/20 A2988 RMK AO2 LTG DSNT E THRU S
KF44 290020Z AUTO 03006KT 10SM SCT014 SCT024 OVC030 21/20 A2990 RMK AO2 LTG DSNT E THRU S
KF44 282355Z AUTO 05005KT 10SM BKN014 OVC020 22/20 A2991 RMK AO2 LTG DSNT E AND SE
KF44 282335Z AUTO 07006KT 040V100 10SM VCTS SCT020 BKN031 BKN065 22/20 A2991 RMK AO2 LTG DSNT E THRU S
KF44 282315Z AUTO 12005KT 10SM BKN031 BKN039 BKN070 22/20 A2988 RMK AO2 LTG DSNT NE THRU SE
KF44 282255Z AUTO 03005KT 10SM VCTS OVC033 22/20 A2987 RMK AO2 LTG DSNT ALQS
KF44 282235Z AUTO 03005KT 10SM TS BKN035 BKN050 22/20 A2987 RMK AO2 LTG DSNT ALQS
KF44 282215Z AUTO 02013KT 10SM TS SCT011 SCT022 BKN030 22/21 A2986 RMK AO2 LTG DSNT ALQS
KF44 282155Z AUTO 34014G29KT 5SM -TSRA SCT014 BKN028 OVC041 22/21 A2987 RMK AO2 LTG DSNT ALQS
KF44 282135Z AUTO 00000KT 10SM VCTS SCT035 BKN044 BKN065 28/22 A2987 RMK AO2 LTG DSNT ALQS
KF44 282115Z AUTO 18005KT 10SM SCT035 OVC044 28/22 A2986 RMK AO2 LTG DSNT ALQS
KF44 282055Z AUTO 17004KT 10SM VCTS SCT033 OVC043 28/22 A2989 RMK AO2 LTG DSNT ALQS
KF44 282035Z AUTO 15004KT 10SM SCT031 OVC039 28/22 A2991 RMK AO2 LTG DSNT NW THRU NE
KF44 282015Z AUTO 16004KT 10SM BKN041 BKN048 OVC050 28/22 A2991 RMK AO2 LTG DSNT N AND NW
KF44 281955Z AUTO 16006KT 10SM OVC050 28/21 A2991 RMK AO2 LTG DSNT W AND NW
KF44 281935Z AUTO 14004KT 10SM OVC050 28/22 A2991 RMK AO2
KF44 281915Z AUTO 13006KT 10SM OVC048 28/21 A2991 RMK AO2 LTG DSNT NW
KF44 281855Z AUTO 17007KT 10SM BKN044 OVC055 28/21 A2992 RMK AO2
KF44 281835Z AUTO 14005KT 10SM BKN046 OVC055 27/20 A2993 RMK AO2
KF44 281815Z AUTO 15005KT 10SM SCT046 OVC055 27/20 A2993 RMK AO2
KF44 281755Z AUTO 16008KT 10SM BKN046 OVC055 27/20 A2993 RMK AO2
KF44 281740Z AUTO 15008KT 10SM BKN046 OVC055 27/20 A2994 RMK AO2
KF44 281715Z AUTO 14008KT 10SM OVC048 26/18 A2994 RMK AO2
KF44 281655Z AUTO 14010G15KT 10SM OVC048 25/18 A2994 RMK AO2
KF44 281635Z AUTO 14010G14KT 10SM OVC048 25/18 A2994 RMK AO2
KF44 281615Z AUTO 14008KT 10SM SCT032 OVC048 24/18 A2995 RMK AO2
KF44 281555Z AUTO 13010KT 090V160 10SM SCT032 SCT043 OVC050 24/18 A2994 RMK AO2
KF44 281535Z AUTO 14014G21KT 10SM SCT043 BKN050 24/18 A2994 RMK AO2
KF44 281515Z AUTO 14010G19KT 10SM BKN050 24/18 A2993 RMK AO2 LTG DSNT SE
KF44 281455Z AUTO 13017G22KT 10SM SCT031 SCT060 SCT075 23/18 A2993 RMK AO2 LTG DSNT E
KF44 281435Z AUTO 14013G17KT 10SM SCT031 BKN075 BKN085 22/18 A2993 RMK AO2 LTG DSNT NE AND E
KF44 281415Z AUTO 13008G17KT 10SM SCT032 SCT039 BKN075 22/18 A2995 RMK AO2 LTG DSNT NE
KF44 281355Z AUTO 13008G16KT 10SM SCT035 SCT042 BKN075 22/18 A2994 RMK AO2 LTG DSNT NE AND E
KF44 281335Z AUTO 13010KT 10SM SCT047 BKN085 21/18 A2995 RMK AO2 LTG DSNT NE AND E
KF44 281315Z AUTO 12005KT 10SM SCT034 SCT048 BKN085 21/18 A2995 RMK AO2 LTG DSNT NE AND E
KF44 281255Z AUTO 12010G14KT 10SM BKN029 BKN036 OVC043 21/18 A2994 RMK AO2 LTG DSNT NE AND E
KF44 281235Z AUTO 08006KT 10SM OVC027 21/17 A2996 RMK AO2 LTG DSNT NE
KF44 281215Z AUTO 08005KT 10SM TS OVC025 21/17 A2995 RMK AO2 LTG DSNT NE THRU SE
KF44 281155Z AUTO 09007G15KT 10SM SCT017 OVC025 21/17 A2993 RMK AO2 LTG DSNT NW THRU E
KF44 281135Z AUTO 10006G16KT 10SM BKN015 OVC027 22/20 A2992 RMK AO2 LTG DSNT N THRU E
KF44 281115Z AUTO 09003KT 10SM VCTS SCT017 OVC027 23/23 A2991 RMK AO2 LTG DSNT N THRU E
KF44 281055Z AUTO 06005KT 10SM BKN017 OVC021 23/23 A2991 RMK AO2 LTG DSNT NW THRU E
KF44 281035Z AUTO 09003KT 10SM OVC013 23/23 A2988 RMK AO2 LTG DSNT N THRU E
KF44 281015Z AUTO 06004KT 10SM OVC011 23/23 A2987 RMK AO2 LTG DSNT N THRU E
KF44 280955Z AUTO 02012G15KT 10SM OVC011 23/23 A2986 RMK AO2 LTG DSNT NE AND NW
KF44 280935Z AUTO 19006KT 10SM OVC011 23/23 A2980 RMK AO2 LTG DSNT NE AND NW
KF44 280915Z AUTO 18009G14KT 10SM VCTS OVC011 23/23 A2978 RMK AO2 LTG DSNT N AND NE
KF44 280855Z AUTO 18009KT 10SM TS OVC011 23/23 A2978 RMK AO2 LTG DSNT N AND NE
KF44 280835Z AUTO 18007KT 10SM TS BKN011 23/23 A2978 RMK AO2 LTG DSNT NW THRU NE
KF44 280815Z AUTO 18005KT 10SM VCTS SCT011 23/23 A2978 RMK AO2 LTG DSNT NW
KF44 280755Z AUTO 19008KT 10SM CLR 23/22 A2978 RMK AO2 LTG DSNT NE
KF44 280735Z AUTO 19006KT 10SM CLR 23/22 A2979 RMK AO2 LTG DSNT SW THRU N
KF44 280715Z AUTO 19008G15KT 10SM CLR 24/22 A2979 RMK AO2 LTG DSNT N
KF44 280655Z AUTO 18012G19KT 10SM CLR 24/22 A2980 RMK AO2
KF44 280635Z AUTO 18011KT 10SM CLR 25/22 A2979 RMK AO2
KF44 280615Z AUTO 18011G14KT 10SM CLR 25/21 A2980 RMK AO2
KF44 280555Z AUTO 18009G14KT 10SM CLR 25/21 A2980 RMK AO2
KF44 280535Z AUTO 18009KT 10SM CLR 26/21 A2981 RMK AO2
KF44 280515Z AUTO 19007KT 10SM CLR 26/21 A2981 RMK AO2
KF44 280455Z AUTO 18007KT 10SM CLR 26/21 A2981 RMK AO2
KF44 280435Z AUTO 19007G15KT 10SM CLR 27/21 A2980 RMK AO2
KF44 280415Z AUTO 19010G16KT 10SM CLR 27/21 A2980 RMK AO2
KF44 280355Z AUTO 19009G14KT 10SM CLR 27/21 A2979 RMK AO2
KF44 280335Z AUTO 19006KT 10SM CLR 27/22 A2980 RMK AO2
KF44 280315Z AUTO 18008G14KT 10SM CLR 27/22 A2980 RMK AO2
KF44 280255Z AUTO 19007KT 10SM CLR 27/22 A2979 RMK AO2
KF44 280235Z AUTO 19007G14KT 10SM CLR 28/22 A2978 RMK AO2
KF44 280215Z AUTO 19008KT 10SM CLR 28/22 A2977 RMK AO2
KF44 280155Z AUTO 18007KT 10SM CLR 28/23 A2977 RMK AO2
KF44 280135Z AUTO 18006KT 10SM CLR 28/23 A2978 RMK AO2
KF44 280115Z AUTO 18006KT 10SM CLR 28/23 A2978 RMK AO2
KF44 280055Z AUTO 18005KT 10SM CLR 29/23 A2978 RMK AO2
KF44 280035Z AUTO 18006KT 10SM CLR 30/22 A2979 RMK AO2
KF44 280015Z AUTO 18006KT 10SM CLR 30/22 A2979 RMK AO2
KF44 272355Z AUTO 19005KT 10SM SCT049 30/23 A2979 RMK AO2
KF44 272335Z AUTO 19006G14KT 10SM SCT049 30/22 A2979 RMK AO2


Page loaded:  11:33 UTC  |   04:33 AM Pacific  |   05:33 AM Mountain  |   06:33 AM Central  |   07:33 AM Eastern

 

ADVISORIES

FORECASTS

FORECASTS

OBSERVATIONS

USER TOOLS

ABOUT US